sensor_id;sensor_type;location;lat;lon;timestamp;pressure;altitude;pressure_sealevel;temperature;humidity
77092;BME280;66032;48.252;11.638;2023-03-05T00:01:06;96226.06;;;0.68;74.86
77092;BME280;66032;48.252;11.638;2023-03-05T00:03:33;96226.59;;;0.59;75.56
77092;BME280;66032;48.252;11.638;2023-03-05T00:06:01;96218.50;;;0.50;76.28
77092;BME280;66032;48.252;11.638;2023-03-05T00:08:29;96214.75;;;0.40;76.21
77092;BME280;66032;48.252;11.638;2023-03-05T00:10:57;96208.28;;;0.31;76.95
77092;BME280;66032;48.252;11.638;2023-03-05T00:13:25;96212.06;;;0.25;77.75
77092;BME280;66032;48.252;11.638;2023-03-05T00:15:52;96202.22;;;0.16;75.62
77092;BME280;66032;48.252;11.638;2023-03-05T00:18:20;96197.41;;;0.09;75.95
77092;BME280;66032;48.252;11.638;2023-03-05T00:20:48;96202.72;;;0.07;76.73
77092;BME280;66032;48.252;11.638;2023-03-05T00:23:15;96200.22;;;0.06;76.64
77092;BME280;66032;48.252;11.638;2023-03-05T00:25:42;96196.69;;;0.07;76.77
77092;BME280;66032;48.252;11.638;2023-03-05T00:28:12;96199.28;;;0.07;76.80
77092;BME280;66032;48.252;11.638;2023-03-05T00:30:39;96190.34;;;0.11;77.44
77092;BME280;66032;48.252;11.638;2023-03-05T00:33:07;96191.28;;;0.10;78.08
77092;BME280;66032;48.252;11.638;2023-03-05T00:35:42;96185.41;;;0.06;76.76
77092;BME280;66032;48.252;11.638;2023-03-05T00:38:11;96175.84;;;0.07;77.40
77092;BME280;66032;48.252;11.638;2023-03-05T00:40:39;96180.28;;;0.05;78.12
77092;BME280;66032;48.252;11.638;2023-03-05T00:43:08;96176.00;;;0.04;77.62
77092;BME280;66032;48.252;11.638;2023-03-05T00:45:35;96180.38;;;0.03;79.09
77092;BME280;66032;48.252;11.638;2023-03-05T00:48:03;96180.38;;;0.03;78.64
77092;BME280;66032;48.252;11.638;2023-03-05T00:50:30;96165.50;;;0.05;77.93
77092;BME280;66032;48.252;11.638;2023-03-05T00:52:58;96173.41;;;0.04;77.97
77092;BME280;66032;48.252;11.638;2023-03-05T00:55:25;96177.84;;;0.02;79.00
77092;BME280;66032;48.252;11.638;2023-03-05T00:57:52;96170.88;;;0.02;79.47
77092;BME280;66032;48.252;11.638;2023-03-05T01:00:19;96159.59;;;0.02;77.80
77092;BME280;66032;48.252;11.638;2023-03-05T01:02:47;96173.47;;;0.02;79.03
77092;BME280;66032;48.252;11.638;2023-03-05T01:05:14;96167.19;;;0.06;77.67
77092;BME280;66032;48.252;11.638;2023-03-05T01:07:41;96165.31;;;0.08;78.31
77092;BME280;66032;48.252;11.638;2023-03-05T01:10:10;96167.75;;;0.11;77.35
77092;BME280;66032;48.252;11.638;2023-03-05T01:12:38;96157.31;;;0.11;77.01
77092;BME280;66032;48.252;11.638;2023-03-05T01:15:06;96164.13;;;0.14;78.45
77092;BME280;66032;48.252;11.638;2023-03-05T01:17:33;96164.75;;;0.17;79.48
77092;BME280;66032;48.252;11.638;2023-03-05T01:20:00;96147.88;;;0.24;77.87
77092;BME280;66032;48.252;11.638;2023-03-05T01:22:28;96156.16;;;0.31;78.94
77092;BME280;66032;48.252;11.638;2023-03-05T01:24:55;96155.63;;;0.40;78.93
77092;BME280;66032;48.252;11.638;2023-03-05T01:27:22;96155.16;;;0.48;78.59
77092;BME280;66032;48.252;11.638;2023-03-05T01:29:49;96146.03;;;0.55;78.52
77092;BME280;66032;48.252;11.638;2023-03-05T01:32:16;96146.41;;;0.63;78.10
77092;BME280;66032;48.252;11.638;2023-03-05T01:34:44;96142.50;;;0.70;77.09
77092;BME280;66032;48.252;11.638;2023-03-05T01:37:11;96144.72;;;0.76;76.17
77092;BME280;66032;48.252;11.638;2023-03-05T01:39:38;96140.25;;;0.78;75.37
77092;BME280;66032;48.252;11.638;2023-03-05T01:42:06;96120.69;;;0.85;76.17
77092;BME280;66032;48.252;11.638;2023-03-05T01:44:34;96116.03;;;0.90;75.02
77092;BME280;66032;48.252;11.638;2023-03-05T01:47:02;96117.81;;;0.90;74.65
77092;BME280;66032;48.252;11.638;2023-03-05T01:49:35;96124.13;;;1.00;76.53
77092;BME280;66032;48.252;11.638;2023-03-05T01:52:16;96119.28;;;1.08;76.14
77092;BME280;66032;48.252;11.638;2023-03-05T01:54:51;96111.25;;;1.11;74.85
77092;BME280;66032;48.252;11.638;2023-03-05T01:59:52;96116.19;;;1.16;75.60
77092;BME280;66032;48.252;11.638;2023-03-05T02:02:21;96107.41;;;1.17;74.51
77092;BME280;66032;48.252;11.638;2023-03-05T02:04:54;96107.63;;;0.99;74.48
77092;BME280;66032;48.252;11.638;2023-03-05T02:07:23;96100.53;;;1.01;74.44
77092;BME280;66032;48.252;11.638;2023-03-05T02:09:51;96106.09;;;1.09;75.07
77092;BME280;66032;48.252;11.638;2023-03-05T02:12:18;96105.09;;;1.12;74.30
77092;BME280;66032;48.252;11.638;2023-03-05T02:14:47;96100.72;;;1.12;74.90
77092;BME280;66032;48.252;11.638;2023-03-05T02:17:16;96093.53;;;1.02;74.39
77092;BME280;66032;48.252;11.638;2023-03-05T02:19:52;96093.66;;;1.00;74.70
77092;BME280;66032;48.252;11.638;2023-03-05T02:22:22;96089.59;;;1.09;74.51
77092;BME280;66032;48.252;11.638;2023-03-05T02:24:50;96086.38;;;1.05;74.34
77092;BME280;66032;48.252;11.638;2023-03-05T02:27:21;96088.06;;;1.06;74.53
77092;BME280;66032;48.252;11.638;2023-03-05T02:29:49;96087.66;;;1.12;74.71
77092;BME280;66032;48.252;11.638;2023-03-05T02:32:17;96086.06;;;1.10;74.42
77092;BME280;66032;48.252;11.638;2023-03-05T02:34:45;96080.34;;;1.18;75.44
77092;BME280;66032;48.252;11.638;2023-03-05T02:37:12;96075.53;;;1.11;74.64
77092;BME280;66032;48.252;11.638;2023-03-05T02:39:39;96072.34;;;1.21;75.52
77092;BME280;66032;48.252;11.638;2023-03-05T02:42:07;96073.84;;;1.25;74.38
77092;BME280;66032;48.252;11.638;2023-03-05T02:44:36;96069.81;;;1.33;75.49
77092;BME280;66032;48.252;11.638;2023-03-05T02:47:03;96067.63;;;1.40;75.85
77092;BME280;66032;48.252;11.638;2023-03-05T02:49:32;96063.03;;;1.43;74.69
77092;BME280;66032;48.252;11.638;2023-03-05T02:51:59;96060.63;;;1.40;73.89
77092;BME280;66032;48.252;11.638;2023-03-05T02:54:26;96053.16;;;1.34;74.07
77092;BME280;66032;48.252;11.638;2023-03-05T02:56:54;96054.84;;;1.35;74.94
77092;BME280;66032;48.252;11.638;2023-03-05T02:59:21;96052.28;;;1.48;75.86
77092;BME280;66032;48.252;11.638;2023-03-05T03:01:48;96047.81;;;1.50;74.07
77092;BME280;66032;48.252;11.638;2023-03-05T03:04:15;96044.88;;;1.42;74.40
77092;BME280;66032;48.252;11.638;2023-03-05T03:06:43;96039.22;;;1.48;74.12
77092;BME280;66032;48.252;11.638;2023-03-05T03:09:10;96034.13;;;1.59;75.95
77092;BME280;66032;48.252;11.638;2023-03-05T03:11:37;96039.59;;;1.69;75.83
77092;BME280;66032;48.252;11.638;2023-03-05T03:14:04;96036.69;;;1.73;74.66
77092;BME280;66032;48.252;11.638;2023-03-05T03:16:32;96032.47;;;1.71;73.30
77092;BME280;66032;48.252;11.638;2023-03-05T03:18:59;96034.81;;;1.75;75.01
77092;BME280;66032;48.252;11.638;2023-03-05T03:21:27;96029.25;;;1.80;74.08
77092;BME280;66032;48.252;11.638;2023-03-05T03:23:54;96028.00;;;1.73;73.92
77092;BME280;66032;48.252;11.638;2023-03-05T03:26:21;96028.53;;;1.78;73.83
77092;BME280;66032;48.252;11.638;2023-03-05T03:28:49;96033.97;;;1.87;75.25
77092;BME280;66032;48.252;11.638;2023-03-05T03:31:16;96033.69;;;1.92;74.70
77092;BME280;66032;48.252;11.638;2023-03-05T03:33:44;96026.25;;;1.99;75.50
77092;BME280;66032;48.252;11.638;2023-03-05T03:36:11;96028.56;;;2.03;75.43
77092;BME280;66032;48.252;11.638;2023-03-05T03:38:38;96024.56;;;2.10;74.66
77092;BME280;66032;48.252;11.638;2023-03-05T03:41:06;96020.81;;;2.14;74.10
77092;BME280;66032;48.252;11.638;2023-03-05T03:43:35;96020.28;;;2.09;73.25
77092;BME280;66032;48.252;11.638;2023-03-05T03:46:04;96013.41;;;2.08;73.81
77092;BME280;66032;48.252;11.638;2023-03-05T03:48:32;96017.28;;;2.15;74.36
77092;BME280;66032;48.252;11.638;2023-03-05T03:51:03;96021.97;;;2.10;72.62
77092;BME280;66032;48.252;11.638;2023-03-05T03:53:30;96017.16;;;1.92;72.78
77092;BME280;66032;48.252;11.638;2023-03-05T03:55:58;96015.16;;;1.82;73.39
77092;BME280;66032;48.252;11.638;2023-03-05T03:58:25;96019.47;;;1.83;73.48
77092;BME280;66032;48.252;11.638;2023-03-05T04:00:53;96008.78;;;1.74;73.63
77092;BME280;66032;48.252;11.638;2023-03-05T04:03:20;96012.31;;;1.85;74.50
77092;BME280;66032;48.252;11.638;2023-03-05T04:05:47;96009.94;;;1.82;73.44
77092;BME280;66032;48.252;11.638;2023-03-05T04:08:14;96010.66;;;1.84;73.71
77092;BME280;66032;48.252;11.638;2023-03-05T04:10:41;96008.88;;;1.85;73.91
77092;BME280;66032;48.252;11.638;2023-03-05T04:13:08;96005.88;;;1.91;74.61
77092;BME280;66032;48.252;11.638;2023-03-05T04:15:35;95997.50;;;1.99;74.01
77092;BME280;66032;48.252;11.638;2023-03-05T04:18:03;95997.59;;;1.84;73.36
77092;BME280;66032;48.252;11.638;2023-03-05T04:20:30;95990.38;;;1.88;73.58
77092;BME280;66032;48.252;11.638;2023-03-05T04:22:58;95989.03;;;1.95;74.17
77092;BME280;66032;48.252;11.638;2023-03-05T04:25:25;95987.44;;;1.92;73.81
77092;BME280;66032;48.252;11.638;2023-03-05T04:27:52;95984.22;;;2.02;75.01
77092;BME280;66032;48.252;11.638;2023-03-05T04:30:19;95981.19;;;2.08;74.19
77092;BME280;66032;48.252;11.638;2023-03-05T04:32:46;95974.59;;;2.02;73.79
77092;BME280;66032;48.252;11.638;2023-03-05T04:35:14;95982.44;;;2.02;73.89
77092;BME280;66032;48.252;11.638;2023-03-05T04:37:41;95976.81;;;1.83;74.76
77092;BME280;66032;48.252;11.638;2023-03-05T04:40:08;95973.78;;;1.89;75.48
77092;BME280;66032;48.252;11.638;2023-03-05T04:42:36;95976.06;;;1.81;75.61
77092;BME280;66032;48.252;11.638;2023-03-05T04:45:04;95967.19;;;1.83;76.75
77092;BME280;66032;48.252;11.638;2023-03-05T04:47:33;95974.38;;;1.80;76.20
77092;BME280;66032;48.252;11.638;2023-03-05T04:50:00;95967.38;;;1.80;76.73
77092;BME280;66032;48.252;11.638;2023-03-05T04:52:27;95973.13;;;1.73;77.03
77092;BME280;66032;48.252;11.638;2023-03-05T04:54:54;95958.72;;;1.80;77.62
77092;BME280;66032;48.252;11.638;2023-03-05T04:57:22;95961.22;;;1.81;77.58
77092;BME280;66032;48.252;11.638;2023-03-05T04:59:49;95964.34;;;1.86;77.67
77092;BME280;66032;48.252;11.638;2023-03-05T05:02:17;95958.81;;;1.78;77.07
77092;BME280;66032;48.252;11.638;2023-03-05T05:04:44;95961.22;;;1.69;77.01
77092;BME280;66032;48.252;11.638;2023-03-05T05:07:11;95954.00;;;1.72;76.85
77092;BME280;66032;48.252;11.638;2023-03-05T05:09:38;95952.84;;;1.76;77.43
77092;BME280;66032;48.252;11.638;2023-03-05T05:12:07;95949.72;;;1.71;77.25
77092;BME280;66032;48.252;11.638;2023-03-05T05:14:36;95950.78;;;1.81;76.84
77092;BME280;66032;48.252;11.638;2023-03-05T05:17:03;95959.75;;;1.90;77.22
77092;BME280;66032;48.252;11.638;2023-03-05T05:19:32;95956.72;;;1.96;77.51
77092;BME280;66032;48.252;11.638;2023-03-05T05:22:00;95956.53;;;1.99;76.19
77092;BME280;66032;48.252;11.638;2023-03-05T05:24:27;95950.47;;;1.99;75.82
77092;BME280;66032;48.252;11.638;2023-03-05T05:26:55;95947.50;;;2.03;76.52
77092;BME280;66032;48.252;11.638;2023-03-05T05:29:22;95951.50;;;2.09;76.52
77092;BME280;66032;48.252;11.638;2023-03-05T05:31:49;95952.53;;;2.06;75.66
77092;BME280;66032;48.252;11.638;2023-03-05T05:34:17;95953.06;;;2.11;75.79
77092;BME280;66032;48.252;11.638;2023-03-05T05:36:44;95953.69;;;2.15;76.29
77092;BME280;66032;48.252;11.638;2023-03-05T05:39:11;95954.28;;;2.18;76.42
77092;BME280;66032;48.252;11.638;2023-03-05T05:41:38;95957.13;;;2.15;75.50
77092;BME280;66032;48.252;11.638;2023-03-05T05:44:05;95959.53;;;2.18;75.71
77092;BME280;66032;48.252;11.638;2023-03-05T05:46:33;95954.09;;;2.21;75.81
77092;BME280;66032;48.252;11.638;2023-03-05T05:49:00;95960.06;;;2.23;75.79
77092;BME280;66032;48.252;11.638;2023-03-05T05:51:27;95955.56;;;2.25;74.98
77092;BME280;66032;48.252;11.638;2023-03-05T05:53:54;95947.91;;;2.10;74.97
77092;BME280;66032;48.252;11.638;2023-03-05T05:56:21;95960.59;;;2.16;76.02
77092;BME280;66032;48.252;11.638;2023-03-05T05:58:49;95961.19;;;2.19;75.56
77092;BME280;66032;48.252;11.638;2023-03-05T06:01:28;95961.53;;;2.15;75.89
77092;BME280;66032;48.252;11.638;2023-03-05T06:03:57;95960.25;;;2.20;75.10
77092;BME280;66032;48.252;11.638;2023-03-05T06:06:25;95963.72;;;2.21;74.66
77092;BME280;66032;48.252;11.638;2023-03-05T06:08:53;95963.91;;;2.18;74.77
77092;BME280;66032;48.252;11.638;2023-03-05T06:11:21;95964.75;;;2.18;75.77
77092;BME280;66032;48.252;11.638;2023-03-05T06:13:49;95961.72;;;2.24;75.70
77092;BME280;66032;48.252;11.638;2023-03-05T06:16:21;95958.47;;;2.21;74.74
77092;BME280;66032;48.252;11.638;2023-03-05T06:18:50;95958.03;;;2.27;75.40
77092;BME280;66032;48.252;11.638;2023-03-05T06:21:20;95957.94;;;2.28;75.57
77092;BME280;66032;48.252;11.638;2023-03-05T06:23:48;95957.84;;;2.30;74.53
77092;BME280;66032;48.252;11.638;2023-03-05T06:26:17;95957.00;;;2.29;74.78
77092;BME280;66032;48.252;11.638;2023-03-05T06:28:45;95955.34;;;2.16;74.30
77092;BME280;66032;48.252;11.638;2023-03-05T06:31:16;95954.59;;;2.26;74.87
77092;BME280;66032;48.252;11.638;2023-03-05T06:33:44;95956.69;;;2.21;74.80
77092;BME280;66032;48.252;11.638;2023-03-05T06:36:14;95952.72;;;2.28;75.03
77092;BME280;66032;48.252;11.638;2023-03-05T06:38:42;95959.63;;;2.29;74.89
77092;BME280;66032;48.252;11.638;2023-03-05T06:41:14;95954.28;;;2.31;74.75
77092;BME280;66032;48.252;11.638;2023-03-05T06:43:44;95954.69;;;2.38;75.27
77092;BME280;66032;48.252;11.638;2023-03-05T06:46:22;95947.69;;;2.38;74.04
77092;BME280;66032;48.252;11.638;2023-03-05T06:48:50;95945.72;;;2.29;74.00
77092;BME280;66032;48.252;11.638;2023-03-05T06:51:20;95940.56;;;2.40;75.71
77092;BME280;66032;48.252;11.638;2023-03-05T06:53:49;95946.53;;;2.42;75.06
77092;BME280;66032;48.252;11.638;2023-03-05T06:56:18;95951.44;;;2.47;73.94
77092;BME280;66032;48.252;11.638;2023-03-05T06:58:48;95945.69;;;2.42;73.90
77092;BME280;66032;48.252;11.638;2023-03-05T07:01:17;95948.72;;;2.48;74.25
77092;BME280;66032;48.252;11.638;2023-03-05T07:03:51;95945.75;;;2.53;74.35
77092;BME280;66032;48.252;11.638;2023-03-05T07:06:20;95952.13;;;2.61;75.09
77092;BME280;66032;48.252;11.638;2023-03-05T07:08:48;95946.66;;;2.64;74.09
77092;BME280;66032;48.252;11.638;2023-03-05T07:11:18;95940.25;;;2.68;73.85
77092;BME280;66032;48.252;11.638;2023-03-05T07:13:46;95943.13;;;2.65;73.51
77092;BME280;66032;48.252;11.638;2023-03-05T07:16:19;95945.09;;;2.62;73.27
77092;BME280;66032;48.252;11.638;2023-03-05T07:18:48;95950.84;;;2.67;74.17
77092;BME280;66032;48.252;11.638;2023-03-05T07:21:18;95953.03;;;2.73;73.42
77092;BME280;66032;48.252;11.638;2023-03-05T07:23:46;95946.50;;;2.79;73.34
77092;BME280;66032;48.252;11.638;2023-03-05T07:26:14;95949.56;;;2.73;73.33
77092;BME280;66032;48.252;11.638;2023-03-05T07:28:42;95941.38;;;2.77;72.85
77092;BME280;66032;48.252;11.638;2023-03-05T07:31:16;95943.78;;;2.80;73.40
77092;BME280;66032;48.252;11.638;2023-03-05T07:33:49;95941.66;;;2.85;73.05
77092;BME280;66032;48.252;11.638;2023-03-05T07:36:16;95939.00;;;2.98;73.38
77092;BME280;66032;48.252;11.638;2023-03-05T07:38:44;95941.69;;;3.09;73.22
77092;BME280;66032;48.252;11.638;2023-03-05T07:41:15;95941.69;;;3.09;71.69
77092;BME280;66032;48.252;11.638;2023-03-05T07:43:47;95940.72;;;3.10;71.74
77092;BME280;66032;48.252;11.638;2023-03-05T07:46:17;95939.94;;;3.21;72.26
77092;BME280;66032;48.252;11.638;2023-03-05T07:48:45;95936.38;;;3.22;72.88
77092;BME280;66032;48.252;11.638;2023-03-05T07:51:15;95939.47;;;3.27;71.14
77092;BME280;66032;48.252;11.638;2023-03-05T07:53:44;95933.28;;;3.28;71.55
77092;BME280;66032;48.252;11.638;2023-03-05T07:56:12;95932.50;;;3.38;72.13
77092;BME280;66032;48.252;11.638;2023-03-05T07:58:39;95928.94;;;3.39;71.09
77092;BME280;66032;48.252;11.638;2023-03-05T08:01:10;95929.97;;;3.26;71.58
77092;BME280;66032;48.252;11.638;2023-03-05T08:03:42;95928.00;;;3.40;72.22
77092;BME280;66032;48.252;11.638;2023-03-05T08:06:10;95924.84;;;3.35;71.01
77092;BME280;66032;48.252;11.638;2023-03-05T08:08:38;95924.41;;;3.41;71.53
77092;BME280;66032;48.252;11.638;2023-03-05T08:11:11;95929.91;;;3.50;71.20
77092;BME280;66032;48.252;11.638;2023-03-05T08:13:39;95922.31;;;3.58;71.13
77092;BME280;66032;48.252;11.638;2023-03-05T08:16:12;95918.09;;;3.44;70.84
77092;BME280;66032;48.252;11.638;2023-03-05T08:18:40;95919.81;;;3.56;71.04
77092;BME280;66032;48.252;11.638;2023-03-05T08:21:16;95917.81;;;3.60;71.21
77092;BME280;66032;48.252;11.638;2023-03-05T08:23:43;95915.06;;;3.72;71.08
77092;BME280;66032;48.252;11.638;2023-03-05T08:26:12;95910.78;;;3.71;70.44
77092;BME280;66032;48.252;11.638;2023-03-05T08:28:40;95906.41;;;3.83;70.81
77092;BME280;66032;48.252;11.638;2023-03-05T08:31:08;95911.38;;;3.75;70.86
77092;BME280;66032;48.252;11.638;2023-03-05T08:33:37;95904.34;;;3.87;70.85
77092;BME280;66032;48.252;11.638;2023-03-05T08:36:04;95907.84;;;3.98;70.43
77092;BME280;66032;48.252;11.638;2023-03-05T08:38:32;95902.34;;;3.90;69.66
77092;BME280;66032;48.252;11.638;2023-03-05T08:40:59;95907.09;;;3.96;70.16
77092;BME280;66032;48.252;11.638;2023-03-05T08:43:27;95904.84;;;3.92;69.50
77092;BME280;66032;48.252;11.638;2023-03-05T08:45:54;95904.16;;;4.01;69.85
77092;BME280;66032;48.252;11.638;2023-03-05T08:48:21;95905.34;;;4.08;69.51
77092;BME280;66032;48.252;11.638;2023-03-05T08:50:49;95896.38;;;4.10;68.85
77092;BME280;66032;48.252;11.638;2023-03-05T08:53:16;95899.25;;;3.96;68.93
77092;BME280;66032;48.252;11.638;2023-03-05T08:55:43;95897.09;;;4.12;69.46
77092;BME280;66032;48.252;11.638;2023-03-05T08:58:18;95896.38;;;4.22;69.07
77092;BME280;66032;48.252;11.638;2023-03-05T09:00:46;95893.28;;;4.28;69.17
77092;BME280;66032;48.252;11.638;2023-03-05T09:03:13;95888.84;;;4.28;68.62
77092;BME280;66032;48.252;11.638;2023-03-05T09:05:40;95893.38;;;4.37;68.60
77092;BME280;66032;48.252;11.638;2023-03-05T09:08:08;95887.41;;;4.35;68.33
77092;BME280;66032;48.252;11.638;2023-03-05T09:10:35;95886.69;;;4.44;68.36
77092;BME280;66032;48.252;11.638;2023-03-05T09:13:02;95881.09;;;4.49;68.36
77092;BME280;66032;48.252;11.638;2023-03-05T09:15:30;95882.72;;;4.61;68.06
77092;BME280;66032;48.252;11.638;2023-03-05T09:17:57;95877.63;;;4.60;68.16
77092;BME280;66032;48.252;11.638;2023-03-05T09:20:25;95884.59;;;4.70;67.91
77092;BME280;66032;48.252;11.638;2023-03-05T09:22:53;95879.03;;;4.64;67.68
77092;BME280;66032;48.252;11.638;2023-03-05T09:25:20;95885.31;;;4.72;68.18
77092;BME280;66032;48.252;11.638;2023-03-05T09:27:48;95877.22;;;4.75;67.94
77092;BME280;66032;48.252;11.638;2023-03-05T09:30:16;95876.19;;;4.87;67.31
77092;BME280;66032;48.252;11.638;2023-03-05T09:32:43;95871.28;;;4.94;66.99
77092;BME280;66032;48.252;11.638;2023-03-05T09:35:10;95870.28;;;5.06;67.05
77092;BME280;66032;48.252;11.638;2023-03-05T09:37:38;95872.19;;;5.04;66.66
77092;BME280;66032;48.252;11.638;2023-03-05T09:40:05;95878.50;;;5.13;66.47
77092;BME280;66032;48.252;11.638;2023-03-05T09:50:36;95867.44;;;5.30;65.70
77092;BME280;66032;48.252;11.638;2023-03-05T09:55:41;95866.03;;;5.47;65.94
77092;BME280;66032;48.252;11.638;2023-03-05T09:58:40;95862.38;;;5.59;65.74
77092;BME280;66032;48.252;11.638;2023-03-05T10:01:13;95874.88;;;5.66;65.20
77092;BME280;66032;48.252;11.638;2023-03-05T10:12:04;95855.75;;;5.85;65.41
77092;BME280;66032;48.252;11.638;2023-03-05T10:14:37;95851.78;;;5.91;64.43
77092;BME280;66032;48.252;11.638;2023-03-05T10:20:47;95855.28;;;6.01;64.42
77092;BME280;66032;48.252;11.638;2023-03-05T10:26:09;95843.97;;;6.20;63.55
77092;BME280;66032;48.252;11.638;2023-03-05T10:37:21;95825.72;;;6.28;63.19
77092;BME280;66032;48.252;11.638;2023-03-05T10:42:48;95826.56;;;6.28;63.00
77092;BME280;66032;48.252;11.638;2023-03-05T10:45:52;95822.44;;;6.35;62.67
77092;BME280;66032;48.252;11.638;2023-03-05T10:51:11;95815.78;;;6.41;62.71
77092;BME280;66032;48.252;11.638;2023-03-05T10:54:02;95813.88;;;6.43;62.66
77092;BME280;66032;48.252;11.638;2023-03-05T10:56:35;95810.78;;;6.38;63.29
77092;BME280;66032;48.252;11.638;2023-03-05T10:59:02;95809.59;;;6.52;62.57
77092;BME280;66032;48.252;11.638;2023-03-05T11:01:30;95801.00;;;6.59;62.67
77092;BME280;66032;48.252;11.638;2023-03-05T11:04:04;95801.97;;;6.68;62.19
77092;BME280;66032;48.252;11.638;2023-03-05T11:09:22;95786.47;;;6.84;61.03
77092;BME280;66032;48.252;11.638;2023-03-05T11:14:32;95785.63;;;6.74;61.71
77092;BME280;66032;48.252;11.638;2023-03-05T11:17:00;95776.75;;;6.65;61.63
77092;BME280;66032;48.252;11.638;2023-03-05T11:19:31;95775.09;;;6.83;61.83
77092;BME280;66032;48.252;11.638;2023-03-05T11:22:19;95777.13;;;6.41;62.37
77092;BME280;66032;48.252;11.638;2023-03-05T11:27:37;95782.16;;;6.73;61.54
77092;BME280;66032;48.252;11.638;2023-03-05T11:30:18;95780.34;;;6.74;61.46
77092;BME280;66032;48.252;11.638;2023-03-05T11:32:47;95770.78;;;6.73;61.07
77092;BME280;66032;48.252;11.638;2023-03-05T11:35:30;95767.97;;;6.45;61.74
77092;BME280;66032;48.252;11.638;2023-03-05T11:38:04;95766.75;;;6.40;62.60
77092;BME280;66032;48.252;11.638;2023-03-05T11:40:33;95757.81;;;6.12;63.29
77092;BME280;66032;48.252;11.638;2023-03-05T11:43:03;95766.59;;;6.41;62.54
77092;BME280;66032;48.252;11.638;2023-03-05T11:45:32;95756.88;;;6.23;62.27
77092;BME280;66032;48.252;11.638;2023-03-05T11:48:10;95749.97;;;6.41;62.35
77092;BME280;66032;48.252;11.638;2023-03-05T11:50:40;95750.81;;;6.51;63.09
77092;BME280;66032;48.252;11.638;2023-03-05T11:53:17;95748.19;;;6.70;61.85
77092;BME280;66032;48.252;11.638;2023-03-05T11:55:57;95735.00;;;6.70;60.81
77092;BME280;66032;48.252;11.638;2023-03-05T12:00:59;95747.06;;;6.54;62.07
77092;BME280;66032;48.252;11.638;2023-03-05T12:03:34;95734.59;;;6.56;61.46
77092;BME280;66032;48.252;11.638;2023-03-05T12:06:36;95728.78;;;6.52;62.03
77092;BME280;66032;48.252;11.638;2023-03-05T12:12:11;95729.72;;;6.22;62.43
77092;BME280;66032;48.252;11.638;2023-03-05T12:14:50;95724.03;;;6.36;63.16
77092;BME280;66032;48.252;11.638;2023-03-05T12:17:29;95716.84;;;6.48;62.93
77092;BME280;66032;48.252;11.638;2023-03-05T12:22:39;95716.59;;;6.61;61.65
77092;BME280;66032;48.252;11.638;2023-03-05T12:25:25;95708.84;;;6.69;61.54
77092;BME280;66032;48.252;11.638;2023-03-05T12:27:53;95709.94;;;6.66;60.69
77092;BME280;66032;48.252;11.638;2023-03-05T12:33:03;95694.41;;;6.73;60.55
77092;BME280;66032;48.252;11.638;2023-03-05T12:35:35;95692.75;;;6.53;61.10
77092;BME280;66032;48.252;11.638;2023-03-05T12:38:28;95686.22;;;6.57;60.43
77092;BME280;66032;48.252;11.638;2023-03-05T12:46:35;95675.00;;;6.55;60.88
77092;BME280;66032;48.252;11.638;2023-03-05T12:51:50;95673.50;;;6.52;60.46
77092;BME280;66032;48.252;11.638;2023-03-05T12:56:59;95668.38;;;6.51;61.05
77092;BME280;66032;48.252;11.638;2023-03-05T12:59:44;95661.44;;;6.59;60.97
77092;BME280;66032;48.252;11.638;2023-03-05T13:02:42;95664.19;;;6.48;61.12
77092;BME280;66032;48.252;11.638;2023-03-05T13:07:44;95654.19;;;6.61;60.74
77092;BME280;66032;48.252;11.638;2023-03-05T13:10:28;95651.31;;;6.55;60.73
77092;BME280;66032;48.252;11.638;2023-03-05T13:12:56;95649.09;;;6.60;61.22
77092;BME280;66032;48.252;11.638;2023-03-05T13:15:25;95644.81;;;6.49;60.62
77092;BME280;66032;48.252;11.638;2023-03-05T13:17:59;95648.66;;;6.55;61.06
77092;BME280;66032;48.252;11.638;2023-03-05T13:20:36;95644.94;;;6.57;60.82
77092;BME280;66032;48.252;11.638;2023-03-05T13:28:31;95649.34;;;6.76;60.27
77092;BME280;66032;48.252;11.638;2023-03-05T13:31:10;95642.44;;;6.65;60.01
77092;BME280;66032;48.252;11.638;2023-03-05T13:33:38;95645.63;;;6.69;60.48
77092;BME280;66032;48.252;11.638;2023-03-05T13:36:06;95644.63;;;6.70;59.88
77092;BME280;66032;48.252;11.638;2023-03-05T13:38:43;95638.94;;;6.74;59.99
77092;BME280;66032;48.252;11.638;2023-03-05T13:43:43;95641.91;;;6.52;60.95
77092;BME280;66032;48.252;11.638;2023-03-05T13:46:11;95633.97;;;6.62;60.71
77092;BME280;66032;48.252;11.638;2023-03-05T13:48:39;95631.91;;;6.65;60.80
77092;BME280;66032;48.252;11.638;2023-03-05T13:51:06;95627.03;;;6.70;60.33
77092;BME280;66032;48.252;11.638;2023-03-05T13:53:35;95620.38;;;6.66;60.53
77092;BME280;66032;48.252;11.638;2023-03-05T13:56:11;95617.19;;;6.63;60.11
77092;BME280;66032;48.252;11.638;2023-03-05T13:58:54;95616.53;;;6.61;60.15
77092;BME280;66032;48.252;11.638;2023-03-05T14:01:41;95618.84;;;6.64;60.60
77092;BME280;66032;48.252;11.638;2023-03-05T14:06:52;95619.06;;;6.33;60.36
77092;BME280;66032;48.252;11.638;2023-03-05T14:09:29;95613.06;;;6.51;60.42
77092;BME280;66032;48.252;11.638;2023-03-05T14:12:01;95607.78;;;6.60;59.94
77092;BME280;66032;48.252;11.638;2023-03-05T14:14:33;95606.38;;;6.66;59.77
77092;BME280;66032;48.252;11.638;2023-03-05T14:19:49;95610.25;;;6.71;59.78
77092;BME280;66032;48.252;11.638;2023-03-05T14:22:34;95608.63;;;6.61;60.56
77092;BME280;66032;48.252;11.638;2023-03-05T14:25:03;95605.81;;;6.62;60.08
77092;BME280;66032;48.252;11.638;2023-03-05T14:27:35;95599.47;;;6.55;60.41
77092;BME280;66032;48.252;11.638;2023-03-05T14:30:03;95595.72;;;6.58;60.98
77092;BME280;66032;48.252;11.638;2023-03-05T14:32:33;95589.38;;;6.60;60.11
77092;BME280;66032;48.252;11.638;2023-03-05T14:35:03;95582.56;;;6.58;59.57
77092;BME280;66032;48.252;11.638;2023-03-05T14:37:34;95587.44;;;6.53;59.64
77092;BME280;66032;48.252;11.638;2023-03-05T14:42:36;95580.66;;;6.31;60.18
77092;BME280;66032;48.252;11.638;2023-03-05T14:45:17;95579.13;;;6.28;61.17